createdAt,value
2023-03-19T00:00:29.543Z,100.00
2023-03-19T00:02:56.526Z,100.00
2023-03-19T00:05:23.180Z,100.00
2023-03-19T00:07:49.755Z,100.00
2023-03-19T00:10:16.281Z,100.00
2023-03-19T00:12:42.949Z,100.00
2023-03-19T00:15:14.246Z,100.00
2023-03-19T00:17:42.004Z,100.00
2023-03-19T00:20:10.120Z,100.00
2023-03-19T00:22:36.724Z,100.00
2023-03-19T00:25:03.838Z,100.00
2023-03-19T00:27:30.590Z,100.00
2023-03-19T00:29:57.309Z,100.00
2023-03-19T00:32:23.875Z,100.00
2023-03-19T00:34:51.054Z,100.00
2023-03-19T00:37:18.244Z,100.00
2023-03-19T00:39:44.832Z,100.00
2023-03-19T00:42:11.879Z,100.00
2023-03-19T00:44:38.401Z,100.00
2023-03-19T00:47:06.873Z,100.00
2023-03-19T00:49:33.457Z,100.00
2023-03-19T00:51:59.971Z,100.00
2023-03-19T00:54:26.545Z,100.00
2023-03-19T00:56:53.105Z,100.00
2023-03-19T00:59:19.717Z,100.00
2023-03-19T01:01:46.270Z,100.00
2023-03-19T01:04:13.081Z,100.00
2023-03-19T01:06:39.702Z,100.00
2023-03-19T01:09:06.436Z,100.00
2023-03-19T01:11:32.986Z,100.00
2023-03-19T01:13:59.619Z,100.00
2023-03-19T01:16:26.244Z,100.00
2023-03-19T01:18:53.564Z,100.00
2023-03-19T01:21:20.634Z,100.00
2023-03-19T01:23:47.283Z,100.00
2023-03-19T01:26:13.894Z,100.00
2023-03-19T01:28:40.471Z,100.00
2023-03-19T01:31:08.343Z,100.00
2023-03-19T01:33:34.990Z,100.00
2023-03-19T01:36:03.640Z,100.00
2023-03-19T01:38:30.383Z,100.00
2023-03-19T01:40:57.264Z,100.00
2023-03-19T01:43:25.534Z,100.00
2023-03-19T01:45:57.181Z,100.00
2023-03-19T01:48:41.804Z,100.00
2023-03-19T01:51:11.917Z,100.00
2023-03-19T01:53:41.603Z,100.00
2023-03-19T01:56:32.133Z,100.00
2023-03-19T01:59:04.183Z,100.00
2023-03-19T02:01:34.255Z,100.00
2023-03-19T02:04:00.931Z,100.00
2023-03-19T02:06:30.258Z,100.00
2023-03-19T02:08:58.280Z,100.00
2023-03-19T02:11:26.231Z,100.00
2023-03-19T02:13:53.173Z,100.00
2023-03-19T02:16:20.328Z,100.00
2023-03-19T02:18:47.832Z,100.00
2023-03-19T02:21:20.036Z,100.00
2023-03-19T02:24:01.687Z,100.00
2023-03-19T02:26:29.874Z,100.00
2023-03-19T02:28:56.907Z,100.00
2023-03-19T02:31:24.440Z,100.00
2023-03-19T02:34:27.612Z,100.00
2023-03-19T02:37:02.461Z,100.00
2023-03-19T02:39:38.671Z,100.00
2023-03-19T02:42:06.082Z,100.00
2023-03-19T02:44:32.651Z,100.00
2023-03-19T02:46:59.669Z,100.00
2023-03-19T02:49:26.390Z,100.00
2023-03-19T02:51:52.945Z,100.00
2023-03-19T02:54:19.539Z,100.00
2023-03-19T02:56:46.252Z,100.00
2023-03-19T02:59:13.302Z,100.00
2023-03-19T03:01:39.918Z,100.00
2023-03-19T03:04:06.634Z,100.00
2023-03-19T03:06:33.219Z,100.00
2023-03-19T03:08:59.722Z,100.00
2023-03-19T03:11:27.137Z,100.00
2023-03-19T03:13:53.825Z,100.00
2023-03-19T03:16:20.452Z,100.00
2023-03-19T03:18:47.099Z,100.00
2023-03-19T03:21:13.819Z,100.00
2023-03-19T03:23:40.352Z,100.00
2023-03-19T03:26:07.489Z,100.00
2023-03-19T03:28:34.035Z,100.00
2023-03-19T03:31:02.295Z,100.00
2023-03-19T03:33:29.037Z,100.00
2023-03-19T03:35:55.971Z,100.00
2023-03-19T03:38:23.648Z,100.00
2023-03-19T03:40:52.590Z,100.00
2023-03-19T03:43:21.120Z,100.00
2023-03-19T03:45:48.730Z,100.00
2023-03-19T03:48:16.237Z,100.00
2023-03-19T03:50:43.096Z,100.00
2023-03-19T03:53:12.022Z,100.00
2023-03-19T03:55:39.244Z,100.00
2023-03-19T03:58:05.870Z,100.00
2023-03-19T04:00:32.718Z,100.00
2023-03-19T04:02:59.784Z,100.00
2023-03-19T04:05:26.389Z,100.00
2023-03-19T04:07:53.002Z,100.00
2023-03-19T04:10:19.931Z,100.00
2023-03-19T04:12:46.479Z,100.00
2023-03-19T04:15:13.480Z,100.00
2023-03-19T04:17:40.535Z,100.00
2023-03-19T04:20:07.737Z,100.00
2023-03-19T04:22:34.292Z,100.00
2023-03-19T04:25:01.002Z,100.00
2023-03-19T04:27:27.658Z,100.00
2023-03-19T04:29:54.734Z,100.00
2023-03-19T04:32:22.273Z,100.00
2023-03-19T04:34:49.083Z,100.00
2023-03-19T04:37:15.958Z,100.00
2023-03-19T04:39:42.540Z,100.00
2023-03-19T04:42:09.180Z,100.00
2023-03-19T04:44:37.639Z,100.00
2023-03-19T04:47:04.880Z,100.00
2023-03-19T04:49:31.445Z,100.00
2023-03-19T04:51:58.004Z,100.00
2023-03-19T04:54:25.336Z,100.00
2023-03-19T04:56:53.172Z,100.00
2023-03-19T04:59:21.382Z,100.00
2023-03-19T05:01:49.576Z,100.00
2023-03-19T05:04:16.222Z,100.00
2023-03-19T05:06:42.777Z,100.00
2023-03-19T05:09:09.386Z,100.00
2023-03-19T05:11:35.988Z,100.00
2023-03-19T05:14:02.817Z,100.00
2023-03-19T05:16:29.382Z,100.00
2023-03-19T05:18:56.735Z,100.00
2023-03-19T05:21:23.297Z,100.00
2023-03-19T05:23:52.696Z,100.00
2023-03-19T05:26:19.259Z,100.00
2023-03-19T05:28:45.817Z,100.00
2023-03-19T05:31:12.468Z,100.00
2023-03-19T05:33:38.983Z,100.00
2023-03-19T05:36:05.806Z,100.00
2023-03-19T05:38:32.525Z,100.00
2023-03-19T05:41:04.252Z,100.00
2023-03-19T05:43:30.915Z,100.00
2023-03-19T05:45:58.014Z,100.00
2023-03-19T05:48:25.924Z,100.00
2023-03-19T05:50:52.814Z,100.00
2023-03-19T05:53:20.278Z,100.00
2023-03-19T05:55:46.815Z,100.00
2023-03-19T05:58:13.328Z,100.00
2023-03-19T06:00:39.979Z,100.00
2023-03-19T06:03:06.633Z,100.00
2023-03-19T06:05:33.220Z,100.00
2023-03-19T06:07:59.791Z,100.00
2023-03-19T06:10:27.099Z,100.00
2023-03-19T06:12:53.715Z,100.00
2023-03-19T06:15:20.277Z,100.00
2023-03-19T06:17:46.849Z,100.00
2023-03-19T06:20:13.642Z,100.00
2023-03-19T06:22:40.608Z,100.00
2023-03-19T06:25:07.754Z,100.00
2023-03-19T06:27:34.277Z,100.00
2023-03-19T06:30:00.986Z,100.00
2023-03-19T06:32:27.518Z,100.00
2023-03-19T06:34:55.182Z,100.00
2023-03-19T06:37:21.964Z,100.00
2023-03-19T06:39:49.385Z,100.00
2023-03-19T06:42:16.295Z,100.00
2023-03-19T06:44:42.848Z,100.00
2023-03-19T06:47:09.442Z,100.00
2023-03-19T06:49:36.219Z,100.00
2023-03-19T06:52:02.986Z,100.00
2023-03-19T06:54:29.558Z,100.00
2023-03-19T06:56:56.279Z,100.00
2023-03-19T06:59:22.922Z,100.00
2023-03-19T07:01:49.535Z,100.00
2023-03-19T07:04:16.186Z,100.00
2023-03-19T07:06:42.798Z,100.00
2023-03-19T07:09:09.445Z,100.00
2023-03-19T07:11:36.238Z,100.00
2023-03-19T07:14:03.557Z,100.00
2023-03-19T07:16:30.388Z,100.00
2023-03-19T07:18:56.934Z,100.00
2023-03-19T07:21:23.900Z,100.00
2023-03-19T07:23:51.213Z,100.00
2023-03-19T07:26:18.634Z,100.00
2023-03-19T07:28:45.195Z,100.00
2023-03-19T07:31:11.802Z,100.00
2023-03-19T07:33:38.484Z,100.00
2023-03-19T07:36:05.238Z,100.00
2023-03-19T07:38:31.917Z,100.00
2023-03-19T07:41:02.449Z,100.00
2023-03-19T07:43:29.907Z,100.00
2023-03-19T07:45:56.660Z,100.00
2023-03-19T07:48:23.217Z,100.00
2023-03-19T07:50:53.009Z,100.00
2023-03-19T07:53:19.690Z,100.00
2023-03-19T07:55:47.614Z,100.00
2023-03-19T07:58:14.883Z,100.00
2023-03-19T08:00:41.519Z,100.00
2023-03-19T08:03:08.064Z,100.00
2023-03-19T08:05:34.583Z,100.00
2023-03-19T08:08:01.257Z,100.00
2023-03-19T08:10:27.802Z,100.00
2023-03-19T08:12:54.355Z,100.00
2023-03-19T08:15:21.453Z,100.00
2023-03-19T08:17:49.053Z,100.00
2023-03-19T08:20:16.821Z,100.00
2023-03-19T08:22:43.960Z,100.00
2023-03-19T08:25:10.943Z,100.00
2023-03-19T08:27:37.559Z,100.00
2023-03-19T08:30:05.552Z,100.00
2023-03-19T08:32:32.132Z,100.00
2023-03-19T08:34:58.687Z,100.00
2023-03-19T08:37:25.382Z,100.00
2023-03-19T08:39:52.331Z,100.00
2023-03-19T08:42:22.666Z,100.00
2023-03-19T08:44:49.998Z,100.00
2023-03-19T08:47:16.679Z,100.00
2023-03-19T08:49:43.236Z,100.00
2023-03-19T08:52:10.043Z,100.00
2023-03-19T08:54:36.932Z,100.00
2023-03-19T08:57:04.000Z,100.00
2023-03-19T08:59:33.780Z,100.00
2023-03-19T09:02:01.071Z,100.00
2023-03-19T09:04:27.780Z,100.00
2023-03-19T09:06:54.374Z,100.00
2023-03-19T09:09:23.154Z,100.00
2023-03-19T09:11:50.302Z,100.00
2023-03-19T09:14:17.958Z,100.00
2023-03-19T09:16:44.515Z,100.00
2023-03-19T09:19:11.054Z,100.00
2023-03-19T09:21:37.848Z,100.00
2023-03-19T09:24:04.817Z,100.00
2023-03-19T09:26:31.495Z,100.00
2023-03-19T09:28:58.881Z,100.00
2023-03-19T09:31:27.262Z,100.00
2023-03-19T09:33:55.766Z,100.00
2023-03-19T09:36:22.321Z,100.00
2023-03-19T09:38:48.924Z,100.00
2023-03-19T09:41:40.423Z,100.00
2023-03-19T09:44:14.505Z,100.00
2023-03-19T09:46:48.790Z,100.00
2023-03-19T09:49:37.844Z,100.00
2023-03-19T09:52:36.025Z,100.00
2023-03-19T09:55:31.024Z,100.00
2023-03-19T09:57:58.938Z,100.00
2023-03-19T10:00:30.178Z,100.00
2023-03-19T10:03:38.264Z,97.69
2023-03-19T10:06:33.631Z,99.42
2023-03-19T10:09:38.783Z,96.34
2023-03-19T10:12:14.136Z,89.72
2023-03-19T10:15:08.856Z,94.36
2023-03-19T10:17:43.602Z,92.47
2023-03-19T10:20:25.444Z,88.11
2023-03-19T10:23:00.572Z,82.05
2023-03-19T10:25:29.540Z,82.29
2023-03-19T10:28:01.563Z,85.47
2023-03-19T10:30:33.677Z,82.30
2023-03-19T10:33:24.634Z,89.30
2023-03-19T10:36:12.385Z,86.90
2023-03-19T10:38:42.249Z,85.28
2023-03-19T10:41:25.919Z,79.40
2023-03-19T10:44:28.619Z,76.41
2023-03-19T10:46:58.341Z,76.76
2023-03-19T10:49:24.997Z,75.15
2023-03-19T10:51:51.794Z,72.00
2023-03-19T10:54:27.568Z,70.69
2023-03-19T10:57:00.106Z,72.16
2023-03-19T10:59:47.407Z,73.13
2023-03-19T11:02:23.932Z,65.42
2023-03-19T11:05:07.857Z,47.06
2023-03-19T11:07:37.144Z,40.11
2023-03-19T11:10:03.957Z,36.44
2023-03-19T11:12:37.347Z,32.57
2023-03-19T11:15:15.709Z,28.86
2023-03-19T11:18:01.325Z,26.19
2023-03-19T11:20:33.913Z,25.10
2023-03-19T11:23:06.225Z,24.51
2023-03-19T11:25:42.040Z,23.21
2023-03-19T11:28:24.181Z,22.18
2023-03-19T11:31:29.016Z,20.42
2023-03-19T11:34:13.691Z,19.82
2023-03-19T11:36:52.174Z,19.89
2023-03-19T11:39:27.542Z,19.03
2023-03-19T11:42:12.635Z,18.85
2023-03-19T11:44:54.672Z,18.29
2023-03-19T11:47:43.737Z,17.43
2023-03-19T11:50:27.090Z,17.25
2023-03-19T11:53:01.793Z,16.60
2023-03-19T11:55:42.413Z,15.92
2023-03-19T11:58:29.531Z,15.27
2023-03-19T12:00:57.521Z,15.86
2023-03-19T12:03:27.114Z,15.90
2023-03-19T12:06:31.156Z,15.73
2023-03-19T12:09:19.940Z,15.03
2023-03-19T12:11:54.670Z,14.96
2023-03-19T12:14:22.010Z,14.45
2023-03-19T12:16:57.475Z,14.49
2023-03-19T12:19:41.373Z,15.23
2023-03-19T12:22:36.364Z,14.17
2023-03-19T12:25:28.710Z,14.64
2023-03-19T12:28:29.894Z,15.15
2023-03-19T12:31:15.475Z,15.26
2023-03-19T12:34:02.885Z,14.14
2023-03-19T12:36:33.883Z,14.11
2023-03-19T12:39:11.033Z,13.40
2023-03-19T12:41:42.419Z,13.83
2023-03-19T12:44:34.351Z,13.74
2023-03-19T12:47:09.626Z,13.74
2023-03-19T12:49:48.428Z,13.31
2023-03-19T12:52:22.569Z,13.60
2023-03-19T12:55:13.353Z,13.35
2023-03-19T12:57:57.199Z,12.63
2023-03-19T13:00:45.711Z,12.60
2023-03-19T13:03:33.838Z,12.43
2023-03-19T13:06:08.815Z,12.87
2023-03-19T13:08:53.886Z,13.22
2023-03-19T13:11:43.734Z,13.04
2023-03-19T13:14:30.873Z,12.31
2023-03-19T13:17:12.605Z,11.80
2023-03-19T13:19:56.237Z,12.76
2023-03-19T13:22:27.642Z,12.41
2023-03-19T13:24:55.596Z,12.51
2023-03-19T13:27:26.420Z,12.51
2023-03-19T13:30:10.698Z,12.47
2023-03-19T13:32:41.935Z,12.03
2023-03-19T13:35:27.524Z,12.70
2023-03-19T13:38:21.129Z,13.48
2023-03-19T13:40:56.581Z,13.76
2023-03-19T13:43:29.435Z,15.43
2023-03-19T13:46:05.534Z,16.74
2023-03-19T13:48:31.996Z,19.11
2023-03-19T13:51:04.897Z,21.19
2023-03-19T13:53:32.391Z,22.19
2023-03-19T13:56:00.662Z,22.92
2023-03-19T13:58:47.719Z,24.40
2023-03-19T14:01:26.100Z,25.48
2023-03-19T14:03:58.687Z,26.24
2023-03-19T14:06:45.333Z,27.02
2023-03-19T14:09:50.487Z,28.28
2023-03-19T14:12:20.551Z,29.18
2023-03-19T14:14:51.782Z,29.86
2023-03-19T14:17:27.378Z,30.70
2023-03-19T14:19:54.716Z,30.98
2023-03-19T14:23:05.727Z,31.09
2023-03-19T14:26:10.774Z,31.55
2023-03-19T14:28:52.934Z,31.91
2023-03-19T14:31:31.808Z,31.89
2023-03-19T14:34:15.427Z,32.37
2023-03-19T14:36:47.963Z,32.20
2023-03-19T14:39:25.021Z,32.48
2023-03-19T14:42:01.859Z,32.69
2023-03-19T14:44:36.445Z,33.70
2023-03-19T14:47:21.091Z,33.33
2023-03-19T14:50:19.704Z,33.54
2023-03-19T14:53:14.811Z,33.36
2023-03-19T14:55:42.152Z,33.51
2023-03-19T14:58:12.917Z,33.16
2023-03-19T15:00:54.445Z,32.94
2023-03-19T15:03:31.555Z,32.42
2023-03-19T15:06:01.384Z,30.46
2023-03-19T15:08:31.280Z,27.46
2023-03-19T15:11:07.155Z,27.48
2023-03-19T15:13:58.337Z,29.27
2023-03-19T15:17:04.080Z,31.58
2023-03-19T15:19:32.252Z,33.92
2023-03-19T15:22:28.041Z,35.74
2023-03-19T15:24:54.547Z,36.85
2023-03-19T15:27:27.138Z,38.25
2023-03-19T15:29:54.826Z,39.64
2023-03-19T15:32:54.343Z,40.78
2023-03-19T15:35:33.374Z,41.89
2023-03-19T15:38:03.065Z,43.66
2023-03-19T15:40:32.111Z,44.23
2023-03-19T15:43:02.588Z,45.84
2023-03-19T15:45:33.724Z,46.87
2023-03-19T15:48:11.113Z,48.20
2023-03-19T15:50:43.136Z,50.11
2023-03-19T15:53:13.825Z,55.98
2023-03-19T15:55:41.150Z,60.84
2023-03-19T15:58:17.080Z,66.25
2023-03-19T16:00:43.717Z,71.96
2023-03-19T16:03:18.916Z,76.23
2023-03-19T16:05:45.908Z,80.50
2023-03-19T16:08:22.286Z,83.55
2023-03-19T16:10:49.160Z,86.55
2023-03-19T16:13:39.004Z,89.65
2023-03-19T16:16:10.272Z,91.51
2023-03-19T16:19:03.130Z,94.13
2023-03-19T16:21:37.149Z,95.39
2023-03-19T16:24:24.970Z,97.41
2023-03-19T16:26:52.235Z,98.84
2023-03-19T16:29:31.197Z,99.39
2023-03-19T16:32:04.008Z,100.00
2023-03-19T16:34:46.491Z,100.00
2023-03-19T16:37:32.962Z,100.00
2023-03-19T16:40:00.888Z,100.00
2023-03-19T16:42:36.665Z,100.00
2023-03-19T16:45:30.840Z,100.00
2023-03-19T16:47:59.336Z,100.00
2023-03-19T16:50:32.337Z,100.00
2023-03-19T16:53:00.835Z,100.00
2023-03-19T16:55:32.248Z,100.00
2023-03-19T16:58:14.366Z,100.00
2023-03-19T17:00:43.170Z,100.00
2023-03-19T17:03:15.327Z,100.00
2023-03-19T17:05:42.545Z,100.00
2023-03-19T17:08:09.560Z,100.00
2023-03-19T17:10:38.170Z,100.00
2023-03-19T17:13:04.890Z,100.00
2023-03-19T17:15:38.234Z,100.00
2023-03-19T17:18:26.782Z,100.00
2023-03-19T17:21:02.392Z,100.00
2023-03-19T17:23:30.431Z,100.00
2023-03-19T17:25:57.487Z,100.00
2023-03-19T17:28:24.599Z,100.00
2023-03-19T17:30:51.650Z,100.00
2023-03-19T17:33:27.556Z,100.00
2023-03-19T17:35:55.598Z,100.00
2023-03-19T17:38:25.904Z,100.00
2023-03-19T17:40:52.469Z,100.00
2023-03-19T17:43:19.030Z,100.00
2023-03-19T17:45:48.399Z,100.00
2023-03-19T17:48:24.863Z,100.00
2023-03-19T17:50:51.710Z,100.00
2023-03-19T17:53:18.677Z,100.00
2023-03-19T17:55:46.812Z,100.00
2023-03-19T17:58:19.153Z,100.00
2023-03-19T18:00:51.397Z,100.00
2023-03-19T18:03:21.029Z,100.00
2023-03-19T18:05:50.504Z,100.00
2023-03-19T18:08:19.844Z,100.00
2023-03-19T18:10:47.035Z,100.00
2023-03-19T18:13:13.706Z,100.00
2023-03-19T18:15:42.615Z,100.00
2023-03-19T18:18:18.806Z,100.00
2023-03-19T18:20:46.704Z,100.00
2023-03-19T18:23:16.122Z,100.00
2023-03-19T18:25:44.722Z,100.00
2023-03-19T18:28:12.007Z,100.00
2023-03-19T18:30:40.611Z,100.00
2023-03-19T18:33:13.499Z,100.00
2023-03-19T18:35:42.545Z,100.00
2023-03-19T18:38:20.541Z,100.00
2023-03-19T18:40:48.915Z,100.00
2023-03-19T18:43:16.461Z,100.00
2023-03-19T18:45:45.712Z,100.00
2023-03-19T18:48:31.428Z,100.00
2023-03-19T18:50:58.220Z,100.00
2023-03-19T18:53:25.883Z,100.00
2023-03-19T18:55:52.719Z,100.00
2023-03-19T18:58:25.771Z,100.00
2023-03-19T19:00:53.369Z,100.00
2023-03-19T19:03:28.480Z,100.00
2023-03-19T19:05:56.144Z,100.00
2023-03-19T19:08:25.166Z,100.00
2023-03-19T19:10:55.340Z,100.00
2023-03-19T19:13:28.860Z,100.00
2023-03-19T19:15:55.598Z,100.00
2023-03-19T19:18:26.069Z,100.00
2023-03-19T19:20:53.856Z,100.00
2023-03-19T19:23:22.227Z,100.00
2023-03-19T19:25:55.240Z,100.00
2023-03-19T19:28:26.657Z,100.00
2023-03-19T19:30:58.927Z,100.00
2023-03-19T19:33:33.135Z,100.00
2023-03-19T19:35:59.805Z,100.00
2023-03-19T19:38:26.535Z,100.00
2023-03-19T19:40:55.599Z,100.00
2023-03-19T19:43:25.257Z,100.00
2023-03-19T19:45:54.647Z,100.00
2023-03-19T19:48:26.106Z,100.00
2023-03-19T19:50:53.906Z,100.00
2023-03-19T19:53:21.205Z,100.00
2023-03-19T19:55:47.818Z,100.00
2023-03-19T19:58:30.968Z,100.00
2023-03-19T20:01:03.758Z,100.00
2023-03-19T20:03:33.083Z,100.00
2023-03-19T20:06:01.971Z,100.00
2023-03-19T20:08:28.894Z,100.00
2023-03-19T20:10:56.162Z,100.00
2023-03-19T20:13:27.110Z,100.00
2023-03-19T20:15:55.947Z,100.00
2023-03-19T20:18:24.590Z,100.00
2023-03-19T20:20:52.012Z,100.00
2023-03-19T20:23:18.999Z,100.00
2023-03-19T20:25:46.977Z,100.00
2023-03-19T20:28:23.185Z,100.00
2023-03-19T20:30:53.617Z,100.00
2023-03-19T20:33:21.561Z,100.00
2023-03-19T20:35:48.802Z,100.00
2023-03-19T20:38:15.802Z,100.00
2023-03-19T20:40:45.540Z,100.00
2023-03-19T20:43:28.124Z,100.00
2023-03-19T20:45:57.251Z,100.00
2023-03-19T20:48:25.788Z,100.00
2023-03-19T20:50:52.749Z,100.00
2023-03-19T20:53:19.618Z,100.00
2023-03-19T20:55:47.794Z,100.00
2023-03-19T20:58:31.389Z,100.00
2023-03-19T21:00:58.684Z,100.00
2023-03-19T21:03:28.893Z,100.00
2023-03-19T21:06:03.985Z,100.00
2023-03-19T21:08:34.969Z,100.00
2023-03-19T21:11:02.165Z,100.00
2023-03-19T21:13:28.999Z,100.00
2023-03-19T21:15:55.646Z,100.00
2023-03-19T21:18:22.477Z,100.00
2023-03-19T21:20:54.616Z,100.00
2023-03-19T21:23:31.889Z,100.00
2023-03-19T21:26:00.234Z,100.00
2023-03-19T21:28:31.406Z,100.00
2023-03-19T21:30:58.387Z,100.00
2023-03-19T21:33:32.985Z,100.00
2023-03-19T21:36:01.345Z,100.00
2023-03-19T21:38:28.687Z,100.00
2023-03-19T21:41:01.375Z,100.00
2023-03-19T21:43:38.195Z,100.00
2023-03-19T21:46:22.944Z,100.00
2023-03-19T21:48:50.214Z,100.00
2023-03-19T21:51:16.790Z,100.00
2023-03-19T21:53:45.516Z,100.00
2023-03-19T21:56:40.070Z,100.00
2023-03-19T21:59:15.445Z,100.00
2023-03-19T22:01:42.620Z,100.00
2023-03-19T22:04:09.235Z,100.00
2023-03-19T22:06:36.548Z,100.00
2023-03-19T22:09:06.322Z,100.00
2023-03-19T22:11:35.420Z,100.00
2023-03-19T22:14:34.766Z,100.00
2023-03-19T22:17:01.769Z,100.00
2023-03-19T22:19:29.199Z,100.00
2023-03-19T22:21:55.787Z,100.00
2023-03-19T22:24:22.295Z,100.00
2023-03-19T22:26:56.500Z,100.00
2023-03-19T22:29:25.509Z,100.00
2023-03-19T22:31:53.567Z,100.00
2023-03-19T22:34:22.937Z,100.00
2023-03-19T22:36:50.104Z,100.00
2023-03-19T22:39:17.017Z,100.00
2023-03-19T22:41:46.289Z,100.00
2023-03-19T22:44:28.000Z,100.00
2023-03-19T22:46:57.391Z,100.00
2023-03-19T22:49:24.815Z,100.00
2023-03-19T22:51:51.769Z,100.00
2023-03-19T22:54:18.373Z,100.00
2023-03-19T22:56:44.977Z,100.00
2023-03-19T22:59:11.544Z,100.00
2023-03-19T23:01:44.213Z,100.00
2023-03-19T23:04:19.474Z,100.00
2023-03-19T23:06:46.844Z,100.00
2023-03-19T23:09:35.667Z,100.00
2023-03-19T23:12:03.299Z,100.00
2023-03-19T23:14:31.461Z,100.00
2023-03-19T23:17:03.072Z,100.00
2023-03-19T23:19:38.779Z,100.00
2023-03-19T23:22:07.489Z,100.00
2023-03-19T23:24:34.715Z,100.00
2023-03-19T23:27:02.558Z,100.00
2023-03-19T23:29:35.219Z,100.00
2023-03-19T23:32:01.900Z,100.00
2023-03-19T23:34:28.789Z,100.00
2023-03-19T23:36:56.133Z,100.00
2023-03-19T23:39:23.988Z,100.00
2023-03-19T23:41:54.663Z,100.00
2023-03-19T23:44:22.037Z,100.00
2023-03-19T23:46:50.554Z,100.00
2023-03-19T23:49:28.873Z,100.00
2023-03-19T23:51:56.005Z,100.00
2023-03-19T23:54:22.484Z,100.00
2023-03-19T23:56:50.506Z,100.00
2023-03-19T23:59:18.525Z,100.00
